sensor_id;sensor_type;location;lat;lon;timestamp;P1;durP1;ratioP1;P2;durP2;ratioP2
2992;SDS011;1506;48.932;9.478;2023-04-06T00:01:21;11.70;;;10.20;;
2992;SDS011;1506;48.932;9.478;2023-04-06T00:03:48;17.70;;;11.97;;
2992;SDS011;1506;48.932;9.478;2023-04-06T00:06:16;12.00;;;9.23;;
2992;SDS011;1506;48.932;9.478;2023-04-06T00:08:43;13.93;;;9.97;;
2992;SDS011;1506;48.932;9.478;2023-04-06T00:11:11;15.50;;;10.20;;
2992;SDS011;1506;48.932;9.478;2023-04-06T00:13:38;16.83;;;12.13;;
2992;SDS011;1506;48.932;9.478;2023-04-06T00:16:06;16.80;;;10.87;;
2992;SDS011;1506;48.932;9.478;2023-04-06T00:18:34;13.63;;;10.40;;
2992;SDS011;1506;48.932;9.478;2023-04-06T00:21:02;12.70;;;9.57;;
2992;SDS011;1506;48.932;9.478;2023-04-06T00:23:30;15.67;;;10.53;;
2992;SDS011;1506;48.932;9.478;2023-04-06T00:25:58;17.27;;;12.23;;
2992;SDS011;1506;48.932;9.478;2023-04-06T00:28:25;16.23;;;9.17;;
2992;SDS011;1506;48.932;9.478;2023-04-06T00:30:53;13.47;;;9.90;;
2992;SDS011;1506;48.932;9.478;2023-04-06T00:33:21;16.30;;;10.50;;
2992;SDS011;1506;48.932;9.478;2023-04-06T00:35:49;26.70;;;13.40;;
2992;SDS011;1506;48.932;9.478;2023-04-06T00:38:17;20.67;;;13.03;;
2992;SDS011;1506;48.932;9.478;2023-04-06T00:40:44;24.33;;;14.90;;
2992;SDS011;1506;48.932;9.478;2023-04-06T00:43:11;27.73;;;12.57;;
2992;SDS011;1506;48.932;9.478;2023-04-06T00:45:40;17.37;;;11.90;;
2992;SDS011;1506;48.932;9.478;2023-04-06T00:48:08;19.10;;;13.73;;
2992;SDS011;1506;48.932;9.478;2023-04-06T00:50:35;18.00;;;12.10;;
2992;SDS011;1506;48.932;9.478;2023-04-06T00:53:03;20.23;;;13.10;;
2992;SDS011;1506;48.932;9.478;2023-04-06T00:55:30;24.20;;;13.37;;
2992;SDS011;1506;48.932;9.478;2023-04-06T00:57:58;20.87;;;13.13;;
2992;SDS011;1506;48.932;9.478;2023-04-06T01:00:31;22.47;;;11.87;;
2992;SDS011;1506;48.932;9.478;2023-04-06T01:03:00;22.90;;;11.30;;
2992;SDS011;1506;48.932;9.478;2023-04-06T01:05:35;19.40;;;12.30;;
2992;SDS011;1506;48.932;9.478;2023-04-06T01:08:13;19.00;;;11.13;;
2992;SDS011;1506;48.932;9.478;2023-04-06T01:10:41;16.07;;;11.53;;
2992;SDS011;1506;48.932;9.478;2023-04-06T01:13:18;19.10;;;10.00;;
2992;SDS011;1506;48.932;9.478;2023-04-06T01:15:52;19.50;;;10.27;;
2992;SDS011;1506;48.932;9.478;2023-04-06T01:18:43;15.40;;;11.10;;
2992;SDS011;1506;48.932;9.478;2023-04-06T01:21:15;19.97;;;11.70;;
2992;SDS011;1506;48.932;9.478;2023-04-06T01:24:06;16.07;;;10.53;;
2992;SDS011;1506;48.932;9.478;2023-04-06T01:26:49;14.10;;;9.23;;
2992;SDS011;1506;48.932;9.478;2023-04-06T01:29:17;14.37;;;10.47;;
2992;SDS011;1506;48.932;9.478;2023-04-06T01:31:44;12.90;;;9.60;;
2992;SDS011;1506;48.932;9.478;2023-04-06T01:34:11;16.80;;;11.73;;
2992;SDS011;1506;48.932;9.478;2023-04-06T01:36:39;15.60;;;11.37;;
2992;SDS011;1506;48.932;9.478;2023-04-06T01:39:21;11.57;;;9.97;;
2992;SDS011;1506;48.932;9.478;2023-04-06T01:41:49;18.37;;;12.20;;
2992;SDS011;1506;48.932;9.478;2023-04-06T01:44:19;18.10;;;10.30;;
2992;SDS011;1506;48.932;9.478;2023-04-06T01:46:53;20.23;;;10.80;;
2992;SDS011;1506;48.932;9.478;2023-04-06T01:49:20;14.07;;;9.80;;
2992;SDS011;1506;48.932;9.478;2023-04-06T01:51:51;16.87;;;12.27;;
2992;SDS011;1506;48.932;9.478;2023-04-06T01:54:20;15.60;;;11.33;;
2992;SDS011;1506;48.932;9.478;2023-04-06T01:57:04;19.33;;;12.37;;
2992;SDS011;1506;48.932;9.478;2023-04-06T01:59:40;21.93;;;11.70;;
2992;SDS011;1506;48.932;9.478;2023-04-06T02:02:16;18.13;;;12.73;;
2992;SDS011;1506;48.932;9.478;2023-04-06T02:04:53;16.73;;;11.20;;
2992;SDS011;1506;48.932;9.478;2023-04-06T02:07:20;12.27;;;10.87;;
2992;SDS011;1506;48.932;9.478;2023-04-06T02:09:47;13.10;;;10.93;;
2992;SDS011;1506;48.932;9.478;2023-04-06T02:12:22;16.80;;;11.33;;
2992;SDS011;1506;48.932;9.478;2023-04-06T02:14:50;12.70;;;9.37;;
2992;SDS011;1506;48.932;9.478;2023-04-06T02:17:17;13.40;;;10.23;;
2992;SDS011;1506;48.932;9.478;2023-04-06T02:19:45;19.00;;;11.40;;
2992;SDS011;1506;48.932;9.478;2023-04-06T02:22:12;19.50;;;11.47;;
2992;SDS011;1506;48.932;9.478;2023-04-06T02:24:39;24.80;;;10.40;;
2992;SDS011;1506;48.932;9.478;2023-04-06T02:27:06;17.20;;;9.83;;
2992;SDS011;1506;48.932;9.478;2023-04-06T02:29:33;15.40;;;10.23;;
2992;SDS011;1506;48.932;9.478;2023-04-06T02:32:02;18.00;;;10.97;;
2992;SDS011;1506;48.932;9.478;2023-04-06T02:34:31;11.70;;;9.73;;
2992;SDS011;1506;48.932;9.478;2023-04-06T02:36:58;23.03;;;11.50;;
2992;SDS011;1506;48.932;9.478;2023-04-06T02:39:25;19.80;;;11.70;;
2992;SDS011;1506;48.932;9.478;2023-04-06T02:41:54;16.20;;;11.17;;
2992;SDS011;1506;48.932;9.478;2023-04-06T02:44:24;18.47;;;12.23;;
2992;SDS011;1506;48.932;9.478;2023-04-06T02:46:51;34.33;;;11.23;;
2992;SDS011;1506;48.932;9.478;2023-04-06T02:49:19;19.50;;;12.87;;
2992;SDS011;1506;48.932;9.478;2023-04-06T02:51:47;20.53;;;13.50;;
2992;SDS011;1506;48.932;9.478;2023-04-06T02:54:20;21.87;;;11.67;;
2992;SDS011;1506;48.932;9.478;2023-04-06T02:56:47;15.53;;;10.80;;
2992;SDS011;1506;48.932;9.478;2023-04-06T02:59:14;15.87;;;11.40;;
2992;SDS011;1506;48.932;9.478;2023-04-06T03:01:48;17.93;;;11.70;;
2992;SDS011;1506;48.932;9.478;2023-04-06T03:04:15;15.70;;;11.07;;
2992;SDS011;1506;48.932;9.478;2023-04-06T03:06:42;13.77;;;10.70;;
2992;SDS011;1506;48.932;9.478;2023-04-06T03:09:19;13.67;;;11.03;;
2992;SDS011;1506;48.932;9.478;2023-04-06T03:11:46;16.47;;;9.97;;
2992;SDS011;1506;48.932;9.478;2023-04-06T03:14:14;19.07;;;11.13;;
2992;SDS011;1506;48.932;9.478;2023-04-06T03:16:43;17.30;;;11.70;;
2992;SDS011;1506;48.932;9.478;2023-04-06T03:19:15;16.53;;;11.00;;
2992;SDS011;1506;48.932;9.478;2023-04-06T03:21:42;18.03;;;11.00;;
2992;SDS011;1506;48.932;9.478;2023-04-06T03:24:11;16.80;;;11.90;;
2992;SDS011;1506;48.932;9.478;2023-04-06T03:26:40;17.73;;;11.00;;
2992;SDS011;1506;48.932;9.478;2023-04-06T03:29:08;19.23;;;11.93;;
2992;SDS011;1506;48.932;9.478;2023-04-06T03:31:36;14.83;;;10.00;;
2992;SDS011;1506;48.932;9.478;2023-04-06T03:34:22;16.30;;;10.13;;
2992;SDS011;1506;48.932;9.478;2023-04-06T03:36:49;18.77;;;12.10;;
2992;SDS011;1506;48.932;9.478;2023-04-06T03:39:32;15.47;;;10.43;;
2992;SDS011;1506;48.932;9.478;2023-04-06T03:42:00;21.63;;;11.40;;
2992;SDS011;1506;48.932;9.478;2023-04-06T03:44:35;20.77;;;10.60;;
2992;SDS011;1506;48.932;9.478;2023-04-06T03:47:02;22.63;;;12.30;;
2992;SDS011;1506;48.932;9.478;2023-04-06T03:49:30;15.43;;;10.40;;
2992;SDS011;1506;48.932;9.478;2023-04-06T03:51:58;14.17;;;11.13;;
2992;SDS011;1506;48.932;9.478;2023-04-06T03:54:25;21.10;;;12.30;;
2992;SDS011;1506;48.932;9.478;2023-04-06T03:56:52;19.40;;;10.37;;
2992;SDS011;1506;48.932;9.478;2023-04-06T03:59:19;17.10;;;11.87;;
2992;SDS011;1506;48.932;9.478;2023-04-06T04:01:46;17.10;;;11.17;;
2992;SDS011;1506;48.932;9.478;2023-04-06T04:04:13;20.90;;;10.93;;
2992;SDS011;1506;48.932;9.478;2023-04-06T04:06:40;21.60;;;12.27;;
2992;SDS011;1506;48.932;9.478;2023-04-06T04:09:07;16.70;;;10.67;;
2992;SDS011;1506;48.932;9.478;2023-04-06T04:11:35;16.90;;;12.93;;
2992;SDS011;1506;48.932;9.478;2023-04-06T04:14:02;19.10;;;9.70;;
2992;SDS011;1506;48.932;9.478;2023-04-06T04:16:29;16.80;;;10.90;;
2992;SDS011;1506;48.932;9.478;2023-04-06T04:18:57;11.80;;;10.60;;
2992;SDS011;1506;48.932;9.478;2023-04-06T04:21:29;13.87;;;10.20;;
2992;SDS011;1506;48.932;9.478;2023-04-06T04:24:01;14.83;;;11.70;;
2992;SDS011;1506;48.932;9.478;2023-04-06T04:26:31;23.97;;;13.23;;
2992;SDS011;1506;48.932;9.478;2023-04-06T04:28:58;17.23;;;11.13;;
2992;SDS011;1506;48.932;9.478;2023-04-06T04:31:25;28.00;;;10.77;;
2992;SDS011;1506;48.932;9.478;2023-04-06T04:33:57;12.10;;;10.03;;
2992;SDS011;1506;48.932;9.478;2023-04-06T04:36:29;16.47;;;11.13;;
2992;SDS011;1506;48.932;9.478;2023-04-06T04:38:59;16.27;;;11.90;;
2992;SDS011;1506;48.932;9.478;2023-04-06T04:41:30;14.83;;;10.57;;
2992;SDS011;1506;48.932;9.478;2023-04-06T04:43:58;18.43;;;11.87;;
2992;SDS011;1506;48.932;9.478;2023-04-06T04:46:26;12.77;;;9.80;;
2992;SDS011;1506;48.932;9.478;2023-04-06T04:48:53;15.17;;;11.40;;
2992;SDS011;1506;48.932;9.478;2023-04-06T04:51:21;20.13;;;11.50;;
2992;SDS011;1506;48.932;9.478;2023-04-06T04:54:00;16.10;;;10.17;;
2992;SDS011;1506;48.932;9.478;2023-04-06T04:56:30;15.37;;;11.40;;
2992;SDS011;1506;48.932;9.478;2023-04-06T04:59:07;12.73;;;10.97;;
2992;SDS011;1506;48.932;9.478;2023-04-06T05:01:38;24.40;;;11.43;;
2992;SDS011;1506;48.932;9.478;2023-04-06T05:04:21;15.03;;;10.97;;
2992;SDS011;1506;48.932;9.478;2023-04-06T05:07:08;16.97;;;11.63;;
2992;SDS011;1506;48.932;9.478;2023-04-06T05:09:38;20.40;;;12.47;;
2992;SDS011;1506;48.932;9.478;2023-04-06T05:12:06;16.30;;;12.10;;
2992;SDS011;1506;48.932;9.478;2023-04-06T05:14:40;21.60;;;11.67;;
2992;SDS011;1506;48.932;9.478;2023-04-06T05:17:13;23.93;;;14.23;;
2992;SDS011;1506;48.932;9.478;2023-04-06T05:19:40;17.10;;;11.60;;
2992;SDS011;1506;48.932;9.478;2023-04-06T05:22:08;17.57;;;12.87;;
2992;SDS011;1506;48.932;9.478;2023-04-06T05:24:38;17.17;;;12.60;;
2992;SDS011;1506;48.932;9.478;2023-04-06T05:27:07;24.27;;;15.47;;
2992;SDS011;1506;48.932;9.478;2023-04-06T05:29:34;32.30;;;16.70;;
2992;SDS011;1506;48.932;9.478;2023-04-06T05:32:01;28.07;;;16.03;;
2992;SDS011;1506;48.932;9.478;2023-04-06T05:34:29;26.70;;;14.47;;
2992;SDS011;1506;48.932;9.478;2023-04-06T05:37:00;18.43;;;14.03;;
2992;SDS011;1506;48.932;9.478;2023-04-06T05:39:27;19.17;;;12.10;;
2992;SDS011;1506;48.932;9.478;2023-04-06T05:41:54;17.77;;;11.53;;
2992;SDS011;1506;48.932;9.478;2023-04-06T05:44:45;15.73;;;10.30;;
2992;SDS011;1506;48.932;9.478;2023-04-06T05:47:14;13.03;;;10.70;;
2992;SDS011;1506;48.932;9.478;2023-04-06T05:49:43;15.70;;;11.20;;
2992;SDS011;1506;48.932;9.478;2023-04-06T05:52:18;14.03;;;10.47;;
2992;SDS011;1506;48.932;9.478;2023-04-06T05:54:47;14.17;;;10.77;;
2992;SDS011;1506;48.932;9.478;2023-04-06T05:57:14;12.97;;;10.07;;
2992;SDS011;1506;48.932;9.478;2023-04-06T05:59:43;20.00;;;10.53;;
2992;SDS011;1506;48.932;9.478;2023-04-06T06:02:12;16.27;;;12.20;;
2992;SDS011;1506;48.932;9.478;2023-04-06T06:04:43;13.20;;;10.03;;
2992;SDS011;1506;48.932;9.478;2023-04-06T06:07:11;13.80;;;10.80;;
2992;SDS011;1506;48.932;9.478;2023-04-06T06:09:43;18.80;;;10.67;;
2992;SDS011;1506;48.932;9.478;2023-04-06T06:12:19;15.60;;;9.30;;
2992;SDS011;1506;48.932;9.478;2023-04-06T06:14:48;29.23;;;10.20;;
2992;SDS011;1506;48.932;9.478;2023-04-06T06:17:15;11.57;;;10.13;;
2992;SDS011;1506;48.932;9.478;2023-04-06T06:19:45;14.00;;;12.60;;
2992;SDS011;1506;48.932;9.478;2023-04-06T06:22:12;24.20;;;14.37;;
2992;SDS011;1506;48.932;9.478;2023-04-06T06:24:43;18.30;;;10.70;;
2992;SDS011;1506;48.932;9.478;2023-04-06T06:27:11;22.47;;;13.40;;
2992;SDS011;1506;48.932;9.478;2023-04-06T06:29:38;16.67;;;12.20;;
2992;SDS011;1506;48.932;9.478;2023-04-06T06:32:05;18.80;;;13.00;;
2992;SDS011;1506;48.932;9.478;2023-04-06T06:34:32;14.73;;;11.07;;
2992;SDS011;1506;48.932;9.478;2023-04-06T06:37:02;11.50;;;9.63;;
2992;SDS011;1506;48.932;9.478;2023-04-06T06:39:29;14.63;;;11.60;;
2992;SDS011;1506;48.932;9.478;2023-04-06T06:41:57;16.00;;;10.20;;
2992;SDS011;1506;48.932;9.478;2023-04-06T06:44:43;11.77;;;9.80;;
2992;SDS011;1506;48.932;9.478;2023-04-06T06:47:11;14.30;;;10.73;;
2992;SDS011;1506;48.932;9.478;2023-04-06T06:49:38;11.57;;;10.07;;
2992;SDS011;1506;48.932;9.478;2023-04-06T06:52:05;13.83;;;11.23;;
2992;SDS011;1506;48.932;9.478;2023-04-06T06:54:33;16.57;;;10.17;;
2992;SDS011;1506;48.932;9.478;2023-04-06T06:57:00;11.90;;;10.23;;
2992;SDS011;1506;48.932;9.478;2023-04-06T06:59:28;14.90;;;10.37;;
2992;SDS011;1506;48.932;9.478;2023-04-06T07:01:55;11.70;;;10.50;;
2992;SDS011;1506;48.932;9.478;2023-04-06T07:04:23;11.40;;;9.37;;
2992;SDS011;1506;48.932;9.478;2023-04-06T07:06:50;19.07;;;10.77;;
2992;SDS011;1506;48.932;9.478;2023-04-06T07:09:19;10.20;;;9.30;;
2992;SDS011;1506;48.932;9.478;2023-04-06T07:11:46;12.97;;;9.90;;
2992;SDS011;1506;48.932;9.478;2023-04-06T07:14:15;10.40;;;9.33;;
2992;SDS011;1506;48.932;9.478;2023-04-06T07:16:43;16.80;;;9.70;;
2992;SDS011;1506;48.932;9.478;2023-04-06T07:19:11;13.50;;;10.33;;
2992;SDS011;1506;48.932;9.478;2023-04-06T07:21:39;9.70;;;8.93;;
2992;SDS011;1506;48.932;9.478;2023-04-06T07:24:06;14.00;;;9.07;;
2992;SDS011;1506;48.932;9.478;2023-04-06T07:26:35;16.40;;;11.97;;
2992;SDS011;1506;48.932;9.478;2023-04-06T07:29:03;12.60;;;10.53;;
2992;SDS011;1506;48.932;9.478;2023-04-06T07:31:31;11.37;;;10.27;;
2992;SDS011;1506;48.932;9.478;2023-04-06T07:33:58;12.40;;;9.73;;
2992;SDS011;1506;48.932;9.478;2023-04-06T07:36:26;12.10;;;9.37;;
2992;SDS011;1506;48.932;9.478;2023-04-06T07:38:54;14.50;;;9.10;;
2992;SDS011;1506;48.932;9.478;2023-04-06T07:41:22;9.70;;;8.70;;
2992;SDS011;1506;48.932;9.478;2023-04-06T07:43:50;10.57;;;9.03;;
2992;SDS011;1506;48.932;9.478;2023-04-06T07:46:18;9.83;;;8.90;;
2992;SDS011;1506;48.932;9.478;2023-04-06T07:48:45;15.80;;;9.07;;
2992;SDS011;1506;48.932;9.478;2023-04-06T07:51:12;11.63;;;8.43;;
2992;SDS011;1506;48.932;9.478;2023-04-06T07:53:42;12.77;;;9.50;;
2992;SDS011;1506;48.932;9.478;2023-04-06T07:56:12;13.73;;;9.87;;
2992;SDS011;1506;48.932;9.478;2023-04-06T07:58:41;13.53;;;9.57;;
2992;SDS011;1506;48.932;9.478;2023-04-06T08:01:09;11.87;;;9.40;;
2992;SDS011;1506;48.932;9.478;2023-04-06T08:03:36;18.87;;;8.97;;
2992;SDS011;1506;48.932;9.478;2023-04-06T08:06:04;11.13;;;9.27;;
2992;SDS011;1506;48.932;9.478;2023-04-06T08:08:31;11.23;;;8.53;;
2992;SDS011;1506;48.932;9.478;2023-04-06T08:10:59;16.90;;;9.67;;
2992;SDS011;1506;48.932;9.478;2023-04-06T08:13:28;9.30;;;8.40;;
2992;SDS011;1506;48.932;9.478;2023-04-06T08:15:56;10.03;;;9.10;;
2992;SDS011;1506;48.932;9.478;2023-04-06T08:18:25;9.33;;;8.30;;
2992;SDS011;1506;48.932;9.478;2023-04-06T08:20:52;8.80;;;8.03;;
2992;SDS011;1506;48.932;9.478;2023-04-06T08:23:20;11.93;;;9.50;;
2992;SDS011;1506;48.932;9.478;2023-04-06T08:25:48;13.97;;;10.43;;
2992;SDS011;1506;48.932;9.478;2023-04-06T08:28:16;11.53;;;9.67;;
2992;SDS011;1506;48.932;9.478;2023-04-06T08:30:43;9.73;;;8.27;;
2992;SDS011;1506;48.932;9.478;2023-04-06T08:33:11;11.80;;;9.90;;
2992;SDS011;1506;48.932;9.478;2023-04-06T08:35:38;10.93;;;9.17;;
2992;SDS011;1506;48.932;9.478;2023-04-06T08:38:06;16.30;;;10.37;;
2992;SDS011;1506;48.932;9.478;2023-04-06T08:40:37;10.73;;;9.30;;
2992;SDS011;1506;48.932;9.478;2023-04-06T08:43:06;19.27;;;9.30;;
2992;SDS011;1506;48.932;9.478;2023-04-06T08:45:36;11.03;;;9.20;;
2992;SDS011;1506;48.932;9.478;2023-04-06T08:48:04;11.63;;;8.63;;
2992;SDS011;1506;48.932;9.478;2023-04-06T08:50:33;20.03;;;9.50;;
2992;SDS011;1506;48.932;9.478;2023-04-06T08:53:01;11.53;;;10.03;;
2992;SDS011;1506;48.932;9.478;2023-04-06T08:55:29;12.27;;;8.67;;
2992;SDS011;1506;48.932;9.478;2023-04-06T08:57:56;12.23;;;9.63;;
2992;SDS011;1506;48.932;9.478;2023-04-06T09:00:25;12.70;;;9.67;;
2992;SDS011;1506;48.932;9.478;2023-04-06T09:02:53;14.33;;;9.67;;
2992;SDS011;1506;48.932;9.478;2023-04-06T09:05:23;13.53;;;10.47;;
2992;SDS011;1506;48.932;9.478;2023-04-06T09:07:51;14.83;;;10.00;;
2992;SDS011;1506;48.932;9.478;2023-04-06T09:10:19;19.17;;;10.50;;
2992;SDS011;1506;48.932;9.478;2023-04-06T09:12:47;11.57;;;10.30;;
2992;SDS011;1506;48.932;9.478;2023-04-06T09:15:20;13.70;;;10.00;;
2992;SDS011;1506;48.932;9.478;2023-04-06T09:17:50;14.43;;;10.23;;
2992;SDS011;1506;48.932;9.478;2023-04-06T09:20:23;18.73;;;10.67;;
2992;SDS011;1506;48.932;9.478;2023-04-06T09:22:52;10.67;;;9.00;;
2992;SDS011;1506;48.932;9.478;2023-04-06T09:25:21;12.40;;;9.73;;
2992;SDS011;1506;48.932;9.478;2023-04-06T09:28:00;9.87;;;8.73;;
2992;SDS011;1506;48.932;9.478;2023-04-06T09:30:28;14.47;;;10.17;;
2992;SDS011;1506;48.932;9.478;2023-04-06T09:32:57;11.73;;;9.00;;
2992;SDS011;1506;48.932;9.478;2023-04-06T09:35:26;15.90;;;11.10;;
2992;SDS011;1506;48.932;9.478;2023-04-06T09:37:53;11.97;;;8.83;;
2992;SDS011;1506;48.932;9.478;2023-04-06T09:40:21;15.07;;;10.20;;
2992;SDS011;1506;48.932;9.478;2023-04-06T09:42:49;19.43;;;11.30;;
2992;SDS011;1506;48.932;9.478;2023-04-06T09:45:19;13.80;;;9.50;;
2992;SDS011;1506;48.932;9.478;2023-04-06T09:47:47;11.30;;;9.63;;
2992;SDS011;1506;48.932;9.478;2023-04-06T09:50:19;14.50;;;10.00;;
2992;SDS011;1506;48.932;9.478;2023-04-06T09:52:47;11.33;;;9.30;;
2992;SDS011;1506;48.932;9.478;2023-04-06T09:55:19;13.17;;;9.53;;
2992;SDS011;1506;48.932;9.478;2023-04-06T09:58:05;9.83;;;8.20;;
2992;SDS011;1506;48.932;9.478;2023-04-06T10:00:40;14.27;;;12.77;;
2992;SDS011;1506;48.932;9.478;2023-04-06T10:03:37;11.50;;;10.40;;
2992;SDS011;1506;48.932;9.478;2023-04-06T10:06:26;13.93;;;9.20;;
2992;SDS011;1506;48.932;9.478;2023-04-06T10:08:55;8.50;;;7.70;;
2992;SDS011;1506;48.932;9.478;2023-04-06T10:11:24;8.53;;;7.77;;
2992;SDS011;1506;48.932;9.478;2023-04-06T10:13:51;11.90;;;8.73;;
2992;SDS011;1506;48.932;9.478;2023-04-06T10:16:19;12.30;;;8.70;;
2992;SDS011;1506;48.932;9.478;2023-04-06T10:18:47;10.83;;;9.70;;
2992;SDS011;1506;48.932;9.478;2023-04-06T10:21:19;8.90;;;8.10;;
2992;SDS011;1506;48.932;9.478;2023-04-06T10:23:51;9.67;;;8.70;;
2992;SDS011;1506;48.932;9.478;2023-04-06T10:26:20;12.37;;;9.07;;
2992;SDS011;1506;48.932;9.478;2023-04-06T10:28:48;10.23;;;8.50;;
2992;SDS011;1506;48.932;9.478;2023-04-06T10:31:26;9.20;;;8.47;;
2992;SDS011;1506;48.932;9.478;2023-04-06T10:33:54;9.70;;;7.73;;
2992;SDS011;1506;48.932;9.478;2023-04-06T10:36:23;60.67;;;13.17;;
2992;SDS011;1506;48.932;9.478;2023-04-06T10:38:54;10.97;;;9.40;;
2992;SDS011;1506;48.932;9.478;2023-04-06T10:41:34;22.23;;;8.47;;
2992;SDS011;1506;48.932;9.478;2023-04-06T10:44:07;11.47;;;9.93;;
2992;SDS011;1506;48.932;9.478;2023-04-06T10:46:34;8.53;;;7.90;;
2992;SDS011;1506;48.932;9.478;2023-04-06T10:49:11;12.07;;;9.00;;
2992;SDS011;1506;48.932;9.478;2023-04-06T10:51:39;11.97;;;8.70;;
2992;SDS011;1506;48.932;9.478;2023-04-06T10:54:06;10.00;;;8.80;;
2992;SDS011;1506;48.932;9.478;2023-04-06T10:56:36;10.10;;;9.20;;
2992;SDS011;1506;48.932;9.478;2023-04-06T10:59:05;9.00;;;8.23;;
2992;SDS011;1506;48.932;9.478;2023-04-06T11:01:33;9.70;;;8.53;;
2992;SDS011;1506;48.932;9.478;2023-04-06T11:04:01;9.30;;;8.40;;
2992;SDS011;1506;48.932;9.478;2023-04-06T11:06:29;10.00;;;8.97;;
2992;SDS011;1506;48.932;9.478;2023-04-06T11:09:00;15.17;;;10.80;;
2992;SDS011;1506;48.932;9.478;2023-04-06T11:11:27;10.37;;;9.43;;
2992;SDS011;1506;48.932;9.478;2023-04-06T11:13:57;10.13;;;9.13;;
2992;SDS011;1506;48.932;9.478;2023-04-06T11:16:30;10.60;;;9.50;;
2992;SDS011;1506;48.932;9.478;2023-04-06T11:19:02;9.87;;;9.00;;
2992;SDS011;1506;48.932;9.478;2023-04-06T11:24:06;9.37;;;8.67;;
2992;SDS011;1506;48.932;9.478;2023-04-06T11:29:07;10.13;;;7.87;;
2992;SDS011;1506;48.932;9.478;2023-04-06T11:31:39;9.50;;;7.83;;
2992;SDS011;1506;48.932;9.478;2023-04-06T11:34:26;9.03;;;8.33;;
2992;SDS011;1506;48.932;9.478;2023-04-06T11:37:00;17.50;;;7.87;;
2992;SDS011;1506;48.932;9.478;2023-04-06T11:39:32;11.97;;;8.77;;
2992;SDS011;1506;48.932;9.478;2023-04-06T11:42:21;18.50;;;9.00;;
2992;SDS011;1506;48.932;9.478;2023-04-06T11:44:59;13.50;;;9.30;;
2992;SDS011;1506;48.932;9.478;2023-04-06T11:47:33;10.10;;;9.37;;
2992;SDS011;1506;48.932;9.478;2023-04-06T11:50:12;7.90;;;7.30;;
2992;SDS011;1506;48.932;9.478;2023-04-06T11:52:41;9.10;;;8.20;;
2992;SDS011;1506;48.932;9.478;2023-04-06T11:55:15;9.03;;;7.93;;
2992;SDS011;1506;48.932;9.478;2023-04-06T11:57:44;7.40;;;6.80;;
2992;SDS011;1506;48.932;9.478;2023-04-06T12:00:11;17.40;;;9.40;;
2992;SDS011;1506;48.932;9.478;2023-04-06T12:02:39;7.70;;;7.00;;
2992;SDS011;1506;48.932;9.478;2023-04-06T12:05:12;11.10;;;8.43;;
2992;SDS011;1506;48.932;9.478;2023-04-06T12:07:39;11.63;;;7.53;;
2992;SDS011;1506;48.932;9.478;2023-04-06T12:10:07;8.20;;;7.40;;
2992;SDS011;1506;48.932;9.478;2023-04-06T12:12:35;12.40;;;7.53;;
2992;SDS011;1506;48.932;9.478;2023-04-06T12:15:02;10.77;;;8.17;;
2992;SDS011;1506;48.932;9.478;2023-04-06T12:17:31;8.13;;;7.43;;
2992;SDS011;1506;48.932;9.478;2023-04-06T12:19:58;8.30;;;7.50;;
2992;SDS011;1506;48.932;9.478;2023-04-06T12:22:31;7.37;;;6.70;;
2992;SDS011;1506;48.932;9.478;2023-04-06T12:24:58;7.93;;;7.43;;
2992;SDS011;1506;48.932;9.478;2023-04-06T12:27:25;8.10;;;7.30;;
2992;SDS011;1506;48.932;9.478;2023-04-06T12:29:53;9.70;;;6.80;;
2992;SDS011;1506;48.932;9.478;2023-04-06T12:32:21;7.13;;;6.70;;
2992;SDS011;1506;48.932;9.478;2023-04-06T12:34:48;9.53;;;7.33;;
2992;SDS011;1506;48.932;9.478;2023-04-06T12:37:18;9.40;;;7.77;;
2992;SDS011;1506;48.932;9.478;2023-04-06T12:39:46;37.57;;;7.80;;
2992;SDS011;1506;48.932;9.478;2023-04-06T12:42:13;19.90;;;6.57;;
2992;SDS011;1506;48.932;9.478;2023-04-06T12:44:41;7.67;;;7.00;;
2992;SDS011;1506;48.932;9.478;2023-04-06T12:47:09;6.13;;;5.73;;
2992;SDS011;1506;48.932;9.478;2023-04-06T12:49:37;6.20;;;5.50;;
2992;SDS011;1506;48.932;9.478;2023-04-06T12:52:04;6.47;;;6.00;;
2992;SDS011;1506;48.932;9.478;2023-04-06T12:54:31;7.43;;;6.90;;
2992;SDS011;1506;48.932;9.478;2023-04-06T12:56:58;18.53;;;6.70;;
2992;SDS011;1506;48.932;9.478;2023-04-06T12:59:27;6.90;;;6.20;;
2992;SDS011;1506;48.932;9.478;2023-04-06T13:01:57;8.13;;;7.43;;
2992;SDS011;1506;48.932;9.478;2023-04-06T13:04:24;6.93;;;6.27;;
2992;SDS011;1506;48.932;9.478;2023-04-06T13:06:52;10.83;;;7.30;;
2992;SDS011;1506;48.932;9.478;2023-04-06T13:09:19;8.10;;;6.87;;
2992;SDS011;1506;48.932;9.478;2023-04-06T13:11:46;8.23;;;7.53;;
2992;SDS011;1506;48.932;9.478;2023-04-06T13:14:13;7.53;;;6.93;;
2992;SDS011;1506;48.932;9.478;2023-04-06T13:16:41;7.47;;;6.90;;
2992;SDS011;1506;48.932;9.478;2023-04-06T13:19:09;7.17;;;6.53;;
2992;SDS011;1506;48.932;9.478;2023-04-06T13:21:37;8.40;;;7.67;;
2992;SDS011;1506;48.932;9.478;2023-04-06T13:24:05;7.47;;;6.83;;
2992;SDS011;1506;48.932;9.478;2023-04-06T13:26:32;36.63;;;9.50;;
2992;SDS011;1506;48.932;9.478;2023-04-06T13:28:59;7.53;;;6.93;;
2992;SDS011;1506;48.932;9.478;2023-04-06T13:31:27;8.40;;;6.70;;
2992;SDS011;1506;48.932;9.478;2023-04-06T13:33:55;6.40;;;6.00;;
2992;SDS011;1506;48.932;9.478;2023-04-06T13:36:23;8.10;;;7.40;;
2992;SDS011;1506;48.932;9.478;2023-04-06T13:38:50;7.17;;;6.67;;
2992;SDS011;1506;48.932;9.478;2023-04-06T13:41:20;7.80;;;7.00;;
2992;SDS011;1506;48.932;9.478;2023-04-06T13:43:49;7.37;;;6.67;;
2992;SDS011;1506;48.932;9.478;2023-04-06T13:46:16;7.13;;;6.37;;
2992;SDS011;1506;48.932;9.478;2023-04-06T13:48:43;10.17;;;7.77;;
2992;SDS011;1506;48.932;9.478;2023-04-06T13:51:11;7.53;;;7.00;;
2992;SDS011;1506;48.932;9.478;2023-04-06T13:53:39;9.63;;;7.03;;
2992;SDS011;1506;48.932;9.478;2023-04-06T13:56:07;9.67;;;6.67;;
2992;SDS011;1506;48.932;9.478;2023-04-06T13:58:34;16.23;;;8.30;;
2992;SDS011;1506;48.932;9.478;2023-04-06T14:01:03;30.47;;;17.60;;
2992;SDS011;1506;48.932;9.478;2023-04-06T14:03:37;8.13;;;7.00;;
2992;SDS011;1506;48.932;9.478;2023-04-06T14:06:12;6.70;;;6.20;;
2992;SDS011;1506;48.932;9.478;2023-04-06T14:08:42;11.47;;;6.60;;
2992;SDS011;1506;48.932;9.478;2023-04-06T14:11:13;9.23;;;7.00;;
2992;SDS011;1506;48.932;9.478;2023-04-06T14:13:40;13.50;;;6.57;;
2992;SDS011;1506;48.932;9.478;2023-04-06T14:16:08;10.07;;;8.20;;
2992;SDS011;1506;48.932;9.478;2023-04-06T14:18:36;7.60;;;6.60;;
2992;SDS011;1506;48.932;9.478;2023-04-06T14:21:03;13.13;;;7.93;;
2992;SDS011;1506;48.932;9.478;2023-04-06T14:23:30;6.60;;;6.10;;
2992;SDS011;1506;48.932;9.478;2023-04-06T14:26:06;6.93;;;5.43;;
2992;SDS011;1506;48.932;9.478;2023-04-06T14:28:34;6.10;;;5.50;;
2992;SDS011;1506;48.932;9.478;2023-04-06T14:31:09;7.07;;;6.17;;
2992;SDS011;1506;48.932;9.478;2023-04-06T14:33:38;6.87;;;6.37;;
2992;SDS011;1506;48.932;9.478;2023-04-06T14:36:06;7.43;;;5.53;;
2992;SDS011;1506;48.932;9.478;2023-04-06T14:38:34;6.53;;;5.93;;
2992;SDS011;1506;48.932;9.478;2023-04-06T14:41:01;5.57;;;5.10;;
2992;SDS011;1506;48.932;9.478;2023-04-06T14:43:29;6.37;;;5.33;;
2992;SDS011;1506;48.932;9.478;2023-04-06T14:45:59;7.10;;;5.20;;
2992;SDS011;1506;48.932;9.478;2023-04-06T14:48:27;10.83;;;7.23;;
2992;SDS011;1506;48.932;9.478;2023-04-06T14:50:55;6.40;;;6.00;;
2992;SDS011;1506;48.932;9.478;2023-04-06T14:53:22;6.00;;;5.53;;
2992;SDS011;1506;48.932;9.478;2023-04-06T14:55:50;9.93;;;6.40;;
2992;SDS011;1506;48.932;9.478;2023-04-06T14:58:21;6.67;;;6.00;;
2992;SDS011;1506;48.932;9.478;2023-04-06T15:00:49;6.80;;;6.20;;
2992;SDS011;1506;48.932;9.478;2023-04-06T15:03:21;5.37;;;4.67;;
2992;SDS011;1506;48.932;9.478;2023-04-06T15:05:51;5.67;;;4.80;;
2992;SDS011;1506;48.932;9.478;2023-04-06T15:08:19;9.37;;;5.87;;
2992;SDS011;1506;48.932;9.478;2023-04-06T15:10:49;5.53;;;5.10;;
2992;SDS011;1506;48.932;9.478;2023-04-06T15:13:17;5.37;;;4.87;;
2992;SDS011;1506;48.932;9.478;2023-04-06T15:15:44;5.20;;;4.70;;
2992;SDS011;1506;48.932;9.478;2023-04-06T15:18:11;5.80;;;5.30;;